Time;durP1;ratioP1;P1;durP2;ratioP2;P2;SDS_P1;SDS_P2;PMS_P1;PMS_P2;Temp;Humidity;BMP_temperature;BMP_pressure;BME280_temperature;BME280_humidity;BME280_pressure;Samples;Min_cycle;Max_cycle;Signal;HPM_P1;HPM_P2
2024/01/27 00:01:28;;;;;;;17.47;6.63;;;;;;;0.47;100.00;103314.72;5272679;28;20116;-71
2024/01/27 00:04:00;;;;;;;21.80;7.93;;;;;;;0.47;100.00;103310.47;5275077;28;20040;-70
2024/01/27 00:06:31;;;;;;;19.60;6.73;;;;;;;0.47;100.00;103307.03;5275190;28;20025;-70
2024/01/27 00:09:03;;;;;;;21.03;7.37;;;;;;;0.48;100.00;103306.22;5272825;28;20065;-70
2024/01/27 00:11:34;;;;;;;22.53;6.40;;;;;;;0.49;100.00;103305.44;5272126;28;20037;-72
2024/01/27 00:14:06;;;;;;;17.60;7.00;;;;;;;0.40;100.00;103297.09;5270089;28;20040;-72
2024/01/27 00:16:37;;;;;;;17.50;6.77;;;;;;;0.38;100.00;103298.69;5269425;28;20029;-71
2024/01/27 00:19:08;;;;;;;21.00;6.80;;;;;;;0.40;100.00;103295.41;5248379;28;20021;-72
2024/01/27 00:21:40;;;;;;;20.87;8.10;;;;;;;0.39;100.00;103288.53;5247175;28;20113;-71
2024/01/27 00:24:13;;;;;;;17.47;7.33;;;;;;;0.32;100.00;103294.00;5262055;28;20029;-71
2024/01/27 00:26:44;;;;;;;22.83;7.30;;;;;;;0.30;100.00;103286.19;5268051;28;20033;-71
2024/01/27 00:29:16;;;;;;;20.80;6.77;;;;;;;0.27;100.00;103297.94;5266959;28;20067;-72
2024/01/27 00:31:49;;;;;;;23.03;8.30;;;;;;;0.28;100.00;103295.47;5249740;28;20029;-69
2024/01/27 00:34:20;;;;;;;18.38;6.63;;;;;;;0.18;100.00;103303.31;5248827;28;20037;-72
2024/01/27 00:36:52;;;;;;;17.80;7.23;;;;;;;0.16;100.00;103305.78;5249637;28;20034;-71
2024/01/27 00:39:23;;;;;;;19.67;7.43;;;;;;;0.10;100.00;103310.47;5253848;28;20034;-72
2024/01/27 00:41:55;;;;;;;25.80;7.63;;;;;;;0.09;100.00;103318.06;5254491;28;20104;-72
2024/01/27 00:44:26;;;;;;;21.23;7.57;;;;;;;0.04;100.00;103325.41;5250247;28;20060;-71
2024/01/27 00:46:58;;;;;;;19.13;7.43;;;;;;;0.04;100.00;103321.97;5246651;28;20037;-72
2024/01/27 00:49:30;;;;;;;20.53;7.50;;;;;;;-0.01;100.00;103319.06;5248549;28;20030;-70
2024/01/27 00:52:01;;;;;;;18.33;7.20;;;;;;;-0.05;100.00;103317.97;5248859;28;20029;-71
2024/01/27 00:54:33;;;;;;;37.83;9.97;;;;;;;-0.07;100.00;103322.06;5249896;28;20275;-71
2024/01/27 00:57:04;;;;;;;17.33;6.33;;;;;;;0.03;100.00;103321.06;5247702;28;20108;-71
2024/01/27 00:59:36;;;;;;;19.73;7.40;;;;;;;-0.06;100.00;103323.88;5245453;28;20149;-71
2024/01/27 01:02:07;;;;;;;22.67;8.00;;;;;;;-0.10;100.00;103321.84;5244334;28;20032;-72
2024/01/27 01:04:39;;;;;;;20.40;7.93;;;;;;;-0.14;100.00;103322.44;5243609;28;20116;-71
2024/01/27 01:07:10;;;;;;;15.20;6.10;;;;;;;-0.16;100.00;103320.53;5243231;28;20349;-71
2024/01/27 01:09:41;;;;;;;24.03;8.07;;;;;;;-0.21;100.00;103323.66;5243690;28;20021;-71
2024/01/27 01:12:14;;;;;;;22.60;7.47;;;;;;;-0.19;100.00;103328.91;5243894;28;20033;-72
2024/01/27 01:14:46;;;;;;;19.30;7.57;;;;;;;-0.20;100.00;103340.81;5243057;28;20045;-71
2024/01/27 01:17:17;;;;;;;20.83;6.83;;;;;;;-0.20;100.00;103334.81;5242170;28;20424;-70
2024/01/27 01:19:49;;;;;;;20.97;8.53;;;;;;;-0.17;100.00;103313.63;5243027;28;20035;-71
2024/01/27 01:22:20;;;;;;;25.70;10.50;;;;;;;-0.18;100.00;103325.53;5243027;28;20155;-71
2024/01/27 01:24:52;;;;;;;27.20;8.63;;;;;;;-0.24;100.00;103325.09;5243004;28;20049;-72
2024/01/27 01:27:23;;;;;;;26.70;8.17;;;;;;;-0.22;100.00;103323.56;5241830;28;20111;-71
2024/01/27 01:29:54;;;;;;;15.80;6.90;;;;;;;-0.22;100.00;103324.44;5243069;28;20036;-72
2024/01/27 01:32:26;;;;;;;30.40;9.07;;;;;;;-0.23;100.00;103324.31;5241553;28;20493;-71
2024/01/27 01:34:57;;;;;;;22.73;7.87;;;;;;;-0.26;100.00;103314.75;5242991;28;20033;-71
2024/01/27 01:37:28;;;;;;;23.53;7.83;;;;;;;-0.28;100.00;103334.25;5241607;28;20508;-71
2024/01/27 01:40:00;;;;;;;21.10;8.03;;;;;;;-0.30;100.00;103324.69;5243751;28;20029;-71
2024/01/27 01:42:32;;;;;;;21.40;8.07;;;;;;;-0.33;100.00;103320.19;5243582;28;20032;-72
2024/01/27 01:45:03;;;;;;;23.42;8.25;;;;;;;-0.37;100.00;103324.22;5242868;28;20135;-71
2024/01/27 01:47:35;;;;;;;32.53;9.13;;;;;;;-0.38;100.00;103318.97;5242339;28;20084;-71
2024/01/27 01:50:07;;;;;;;27.53;9.03;;;;;;;-0.36;100.00;103322.53;5242520;28;20068;-71
2024/01/27 01:52:38;;;;;;;24.20;8.13;;;;;;;-0.35;100.00;103324.34;5242407;28;20026;-71
2024/01/27 01:55:10;;;;;;;23.40;8.10;;;;;;;-0.38;100.00;103332.69;5243490;28;20385;-72
2024/01/27 01:57:43;;;;;;;26.67;8.80;;;;;;;-0.31;100.00;103330.56;5242297;28;20087;-71
2024/01/27 02:00:15;;;;;;;21.15;7.97;;;;;;;-0.31;100.00;103331.44;5242190;28;20050;-71
2024/01/27 02:02:47;;;;;;;22.47;8.03;;;;;;;-0.29;100.00;103329.91;5242039;28;20048;-71
2024/01/27 02:05:19;;;;;;;;;;;;;;;-0.31;100.00;103331.44;5242407;28;20167;-71
2024/01/27 02:07:51;;;;;;;21.88;8.48;;;;;;;-0.29;100.00;103324.78;5240900;28;20400;-71
2024/01/27 02:10:22;;;;;;;17.10;8.00;;;;;;;-0.22;100.00;103323.56;5241895;28;20026;-71
2024/01/27 02:12:53;;;;;;;33.83;9.67;;;;;;;-0.23;100.00;103330.31;5240498;28;20275;-71
2024/01/27 02:15:25;;;;;;;32.17;9.83;;;;;;;-0.24;100.00;103323.44;5241990;28;20034;-71
2024/01/27 02:17:57;;;;;;;19.47;9.07;;;;;;;-0.32;100.00;103331.34;5241824;28;20056;-72
2024/01/27 02:20:28;;;;;;;27.23;9.40;;;;;;;-0.30;100.00;103327.25;5241925;28;20171;-72
2024/01/27 02:23:03;;;;;;;28.30;8.93;;;;;;;-0.29;100.00;103340.16;5241723;28;20037;-72
2024/01/27 02:25:35;;;;;;;28.67;10.43;;;;;;;-0.23;100.00;103339.69;5240104;28;20053;-72
2024/01/27 02:28:06;;;;;;;25.73;9.23;;;;;;;-0.24;100.00;103337.91;5241564;28;20063;-72
2024/01/27 02:30:38;;;;;;;23.17;9.33;;;;;;;-0.29;100.00;103345.28;5241533;28;20265;-72
2024/01/27 02:33:09;;;;;;;25.67;10.43;;;;;;;-0.31;100.00;103340.81;5241234;28;20491;-72
2024/01/27 02:35:41;;;;;;;25.33;9.00;;;;;;;-0.32;100.00;103339.03;5241614;28;20112;-72
2024/01/27 02:38:12;;;;;;;23.60;9.60;;;;;;;-0.29;100.00;103339.25;5240799;28;20389;-70
2024/01/27 02:40:43;;;;;;;23.53;8.90;;;;;;;-0.29;100.00;103334.13;5240976;28;20037;-71
2024/01/27 02:43:15;;;;;;;23.03;8.50;;;;;;;-0.39;100.00;103338.59;5241340;28;20420;-71
2024/01/27 02:45:46;;;;;;;17.10;7.93;;;;;;;-0.33;100.00;103342.38;5241403;28;20420;-71
2024/01/27 02:48:17;;;;;;;26.40;8.33;;;;;;;-0.38;100.00;103331.81;5241296;28;20057;-71
2024/01/27 02:50:49;;;;;;;29.47;8.50;;;;;;;-0.45;100.00;103332.09;5241272;28;20038;-72
2024/01/27 02:53:20;;;;;;;22.10;9.07;;;;;;;-0.50;100.00;103342.06;5241448;28;20057;-71
2024/01/27 02:55:52;;;;;;;36.03;9.13;;;;;;;-0.57;100.00;103337.25;5241213;28;20029;-72
2024/01/27 02:58:23;;;;;;;24.93;10.90;;;;;;;-0.54;100.00;103324.66;5241106;28;20039;-72
2024/01/27 03:00:54;;;;;;;31.83;11.23;;;;;;;-0.49;100.00;103336.13;5241209;28;20033;-70
2024/01/27 03:03:26;;;;;;;28.27;10.00;;;;;;;-0.55;100.00;103333.09;5241078;28;20120;-71
2024/01/27 03:05:57;;;;;;;25.10;8.37;;;;;;;-0.53;100.00;103328.09;5240781;28;20037;-71
2024/01/27 03:08:28;;;;;;;26.83;9.10;;;;;;;-0.59;100.00;103332.00;5240649;28;20025;-71
2024/01/27 03:11:00;;;;;;;20.43;8.43;;;;;;;-0.67;100.00;103342.47;5240726;28;20109;-71
2024/01/27 03:13:31;;;;;;;27.57;9.50;;;;;;;-0.73;100.00;103336.09;5240691;28;20034;-72
2024/01/27 03:16:08;;;;;;;25.97;9.10;;;;;;;-0.80;100.00;103338.97;5240873;28;20108;-72
2024/01/27 03:18:40;;;;;;;19.95;8.50;;;;;;;-0.84;100.00;103347.19;5240596;28;20549;-71
2024/01/27 03:21:11;;;;;;;19.10;8.60;;;;;;;-0.88;100.00;103340.09;5240594;28;20037;-71
2024/01/27 03:23:42;;;;;;;23.17;9.10;;;;;;;-0.93;100.00;103349.09;5240300;28;20125;-71
2024/01/27 03:26:14;;;;;;;24.77;8.67;;;;;;;-0.98;100.00;103348.75;5240709;28;20053;-72
2024/01/27 03:28:45;;;;;;;21.23;8.10;;;;;;;-0.99;100.00;103349.50;5240792;28;20029;-72
2024/01/27 03:31:16;;;;;;;20.40;8.77;;;;;;;-1.07;100.00;103352.28;5240791;28;20040;-72
2024/01/27 03:33:48;;;;;;;23.47;9.33;;;;;;;-1.11;100.00;103354.59;5240688;28;20124;-72
2024/01/27 03:36:19;;;;;;;17.80;8.23;;;;;;;-1.11;100.00;103352.03;5240221;28;20057;-72
2024/01/27 03:38:50;;;;;;;27.93;8.97;;;;;;;-1.14;100.00;103350.91;5240695;28;20034;-72
2024/01/27 03:41:22;;;;;;;23.97;9.67;;;;;;;-1.14;100.00;103356.91;5240556;28;20025;-72
2024/01/27 03:43:53;;;;;;;24.57;9.57;;;;;;;-1.07;100.00;103359.94;5240665;28;20520;-72
2024/01/27 03:46:25;;;;;;;28.40;8.47;;;;;;;-1.09;100.00;103347.03;5240475;28;20123;-71
2024/01/27 03:48:56;;;;;;;21.57;8.17;;;;;;;-1.06;100.00;103354.94;5239242;28;20052;-71
2024/01/27 03:51:27;;;;;;;23.83;9.23;;;;;;;-1.00;100.00;103342.63;5240481;28;20125;-70
2024/01/27 03:53:59;;;;;;;25.50;10.40;;;;;;;-0.98;100.00;103340.19;5240432;28;20032;-71
2024/01/27 03:56:30;;;;;;;26.43;8.03;;;;;;;-1.07;100.00;103345.47;5272414;28;20183;-71
2024/01/27 03:59:03;;;;;;;23.40;9.10;;;;;;;-1.07;100.00;103352.28;5240361;28;20160;-71
2024/01/27 04:01:35;;;;;;;28.13;11.65;;;;;;;-1.08;100.00;103351.34;5240357;28;20034;-71
2024/01/27 04:04:06;;;;;;;18.50;8.63;;;;;;;-1.06;100.00;103357.50;5240243;28;20040;-72
2024/01/27 04:06:39;;;;;;;24.27;9.10;;;;;;;-1.06;100.00;103352.38;5239710;28;20030;-72
2024/01/27 04:09:11;;;;;;;21.63;8.65;;;;;;;-0.99;100.00;103358.88;5240261;28;20402;-72
2024/01/27 04:11:42;;;;;;;32.30;9.60;;;;;;;-1.10;100.00;103361.47;5240210;28;20048;-72
2024/01/27 04:14:13;;;;;;;21.87;8.83;;;;;;;-1.05;100.00;103355.84;5239895;28;20037;-71
2024/01/27 04:16:45;;;;;;;17.57;8.93;;;;;;;-1.13;100.00;103357.81;5238756;28;20084;-71
2024/01/27 04:19:16;;;;;;;29.00;9.77;;;;;;;-1.17;100.00;103355.81;5238478;28;20038;-72
2024/01/27 04:21:48;;;;;;;25.47;9.97;;;;;;;-1.23;100.00;103369.00;5239694;28;20112;-72
2024/01/27 04:24:19;;;;;;;24.37;8.70;;;;;;;-1.29;100.00;103366.88;5239742;28;20029;-72
2024/01/27 04:26:50;;;;;;;23.60;8.73;;;;;;;-1.30;100.00;103364.19;5239741;28;20038;-72
2024/01/27 04:29:22;;;;;;;19.97;9.63;;;;;;;-1.36;100.00;103358.59;5238638;28;20389;-71
2024/01/27 04:31:53;;;;;;;20.30;8.97;;;;;;;-1.37;100.00;103351.69;5241615;28;20418;-71
2024/01/27 04:34:25;;;;;;;25.10;8.73;;;;;;;-1.35;100.00;103357.84;5243788;28;20519;-72
2024/01/27 04:36:57;;;;;;;28.93;9.50;;;;;;;-1.40;100.00;103347.25;5242139;28;20366;-72
2024/01/27 04:39:29;;;;;;;26.50;9.43;;;;;;;-1.42;100.00;103364.13;5243795;28;20030;-72
2024/01/27 04:42:00;;;;;;;21.40;9.50;;;;;;;-1.39;100.00;103359.25;5243397;28;20037;-72
2024/01/27 04:44:32;;;;;;;22.17;10.10;;;;;;;-1.43;100.00;103364.91;5243569;28;20355;-72
2024/01/27 04:47:03;;;;;;;24.15;9.30;;;;;;;-1.43;100.00;103372.59;5243743;28;20045;-72
2024/01/27 04:49:35;;;;;;;25.10;10.27;;;;;;;-1.40;100.00;103367.72;5243632;28;20026;-72
2024/01/27 04:52:06;;;;;;;27.60;11.30;;;;;;;-1.41;100.00;103365.91;5243979;28;20072;-72
2024/01/27 04:54:38;;;;;;;28.90;10.27;;;;;;;-1.37;100.00;103362.84;5275425;28;20048;-72
2024/01/27 04:57:09;;;;;;;27.03;10.20;;;;;;;-1.29;100.00;103360.84;5242228;28;20061;-72
2024/01/27 04:59:41;;;;;;;32.13;12.35;;;;;;;-1.25;100.00;103357.75;5275308;28;20487;-72
2024/01/27 05:02:12;;;;;;;27.03;11.27;;;;;;;-1.29;100.00;103358.28;5257721;28;20417;-72
2024/01/27 05:04:43;;;;;;;18.67;9.93;;;;;;;-1.25;100.00;103356.88;5264019;28;20057;-72
2024/01/27 05:07:15;;;;;;;25.93;9.93;;;;;;;-1.33;100.00;103361.41;5262438;28;20029;-73
2024/01/27 05:09:46;;;;;;;26.17;10.47;;;;;;;-1.35;100.00;103368.06;5263922;28;20033;-72
2024/01/27 05:12:18;;;;;;;26.13;11.77;;;;;;;-1.38;100.00;103357.59;5264007;28;20029;-72
2024/01/27 05:14:49;;;;;;;27.40;11.77;;;;;;;-1.39;100.00;103363.47;5263529;28;20036;-72
2024/01/27 05:17:20;;;;;;;26.70;12.13;;;;;;;-1.40;100.00;103361.69;5263782;28;20090;-71
2024/01/27 05:19:52;;;;;;;24.17;11.00;;;;;;;-1.39;100.00;103359.25;5263664;28;20036;-71
2024/01/27 05:22:23;;;;;;;27.93;12.40;;;;;;;-1.45;100.00;103368.13;5262233;28;20419;-71
2024/01/27 05:24:55;;;;;;;24.20;10.73;;;;;;;-1.43;100.00;103357.25;5295519;28;20083;-71
2024/01/27 05:27:26;;;;;;;26.30;11.80;;;;;;;-1.42;100.00;103364.13;5263762;28;20369;-71
2024/01/27 05:29:57;;;;;;;25.97;12.17;;;;;;;-1.48;100.00;103368.78;5263619;28;20040;-71
2024/01/27 05:32:28;;;;;;;20.00;10.00;;;;;;;-1.50;100.00;103365.19;5262417;28;20071;-71
2024/01/27 05:35:00;;;;;;;29.63;12.73;;;;;;;-1.50;100.00;103358.44;5263154;28;20032;-71
2024/01/27 05:37:32;;;;;;;28.33;11.80;;;;;;;-1.52;100.00;103354.84;5262792;28;20547;-71
2024/01/27 05:40:03;;;;;;;26.40;11.30;;;;;;;-1.53;100.00;103350.50;5263311;28;20033;-71
2024/01/27 05:42:35;;;;;;;31.25;12.43;;;;;;;-1.52;100.00;103351.41;5263557;28;20025;-73
2024/01/27 05:45:07;;;;;;;29.80;10.90;;;;;;;-1.57;100.00;103352.72;5263294;28;20465;-72
2024/01/27 05:47:38;;;;;;;28.77;11.43;;;;;;;-1.54;100.00;103335.03;5262838;28;20033;-72
2024/01/27 05:50:10;;;;;;;25.47;12.10;;;;;;;-1.64;100.00;103336.00;5263248;28;20366;-71
2024/01/27 05:52:41;;;;;;;24.90;11.23;;;;;;;-1.56;100.00;103334.94;5295293;28;20029;-72
2024/01/27 05:55:13;;;;;;;26.43;11.67;;;;;;;-1.56;100.00;103337.47;5263083;28;20064;-71
2024/01/27 05:57:44;;;;;;;33.43;12.27;;;;;;;-1.57;100.00;103338.25;5262776;28;20083;-72
2024/01/27 06:00:16;;;;;;;28.40;13.50;;;;;;;-1.62;100.00;103342.13;5262982;28;20141;-71
2024/01/27 06:02:47;;;;;;;42.23;15.30;;;;;;;-1.60;100.00;103350.78;5262867;28;20337;-71
2024/01/27 06:05:19;;;;;;;30.30;13.33;;;;;;;-1.56;100.00;103347.72;5262761;28;20380;-71
2024/01/27 06:07:50;;;;;;;29.13;13.53;;;;;;;-1.43;100.00;103346.09;5262335;28;20112;-72
2024/01/27 06:10:23;;;;;;;25.50;13.40;;;;;;;-1.50;100.00;103339.59;5261122;28;20341;-72
2024/01/27 06:12:55;;;;;;;25.40;13.43;;;;;;;-1.48;100.00;103338.97;5262535;28;20025;-72
2024/01/27 06:15:26;;;;;;;23.57;12.87;;;;;;;-1.51;100.00;103335.28;5294609;28;20047;-71
2024/01/27 06:17:57;;;;;;;32.10;13.17;;;;;;;-1.51;100.00;103338.72;5262652;28;20032;-72
2024/01/27 06:20:29;;;;;;;24.97;13.43;;;;;;;-1.54;100.00;103332.50;5262574;28;20090;-72
2024/01/27 06:23:00;;;;;;;24.10;13.67;;;;;;;-1.56;100.00;103342.59;5261078;28;20063;-72
2024/01/27 06:25:32;;;;;;;28.03;13.43;;;;;;;-1.59;100.00;103342.34;5262405;28;20056;-72
2024/01/27 06:28:03;;;;;;;34.50;15.50;;;;;;;-1.61;100.00;103340.44;5262577;28;20480;-72
2024/01/27 06:30:35;;;;;;;27.37;13.57;;;;;;;-1.63;100.00;103345.44;5262401;28;20075;-71
2024/01/27 06:33:06;;;;;;;29.97;13.03;;;;;;;-1.67;100.00;103348.53;5294485;28;20476;-71
2024/01/27 06:35:37;;;;;;;36.93;14.47;;;;;;;-1.62;100.00;103354.91;5262348;28;20071;-71
2024/01/27 06:38:09;;;;;;;32.60;14.00;;;;;;;-1.66;100.00;103338.44;5261982;28;20086;-71
2024/01/27 06:40:40;;;;;;;36.80;14.97;;;;;;;-1.60;100.00;103340.56;5262176;28;20028;-70
2024/01/27 06:43:13;;;;;;;46.77;15.93;;;;;;;-1.66;100.00;103352.88;5262175;28;20037;-71
2024/01/27 06:45:44;;;;;;;;;;;;;;;-1.74;100.00;103356.47;5262420;28;20029;-71
2024/01/27 06:48:16;;;;;;;38.85;14.95;;;;;;;-1.67;100.00;103359.66;5262116;28;19970;-71
2024/01/27 06:50:47;;;;;;;31.57;14.20;;;;;;;-1.67;100.00;103361.34;5262007;28;20116;-71
2024/01/27 06:53:20;;;;;;;41.10;15.90;;;;;;;-1.65;100.00;103363.22;5262071;28;20055;-71
2024/01/27 06:55:51;;;;;;;34.30;15.30;;;;;;;-1.68;100.00;103370.66;5259882;28;20484;-71
2024/01/27 06:58:23;;;;;;;30.93;14.90;;;;;;;-1.66;100.00;103375.88;5261247;28;20028;-71
2024/01/27 07:00:54;;;;;;;29.03;15.43;;;;;;;-1.66;100.00;103389.59;5259817;28;20152;-71
2024/01/27 07:03:25;;;;;;;43.50;17.00;;;;;;;-1.65;100.00;103385.34;5261482;28;20469;-71
2024/01/27 07:06:00;;;;;;;35.37;16.77;;;;;;;-1.62;100.00;103384.72;5265340;28;20496;-71
2024/01/27 07:08:32;;;;;;;29.92;16.35;;;;;;;-1.63;100.00;103388.91;5257772;28;20055;-71
2024/01/27 07:11:03;;;;;;;37.67;17.55;;;;;;;-1.60;100.00;103388.28;5260542;28;20032;-71
2024/01/27 07:13:35;;;;;;;33.73;16.60;;;;;;;-1.57;100.00;103388.53;5261268;28;20064;-71
2024/01/27 07:16:07;;;;;;;38.35;17.45;;;;;;;-1.60;100.00;103396.84;5259537;28;20036;-71
2024/01/27 07:18:38;;;;;;;32.50;15.87;;;;;;;-1.61;100.00;103391.59;5261153;28;20033;-71
2024/01/27 07:21:15;;;;;;;35.17;17.50;;;;;;;-1.59;100.00;103388.41;5260422;28;20162;-71
2024/01/27 07:23:46;;;;;;;33.88;16.23;;;;;;;-1.57;100.00;103399.63;5260037;28;20097;-71
2024/01/27 07:26:18;;;;;;;41.63;18.63;;;;;;;-1.58;100.00;103397.84;5260662;28;20126;-71
2024/01/27 07:28:49;;;;;;;35.43;16.50;;;;;;;-1.53;100.00;103390.53;5261349;28;20033;-71
2024/01/27 07:31:21;;;;;;;36.43;17.20;;;;;;;-1.54;100.00;103399.88;5260309;28;20032;-71
2024/01/27 07:33:53;;;;;;;38.65;18.60;;;;;;;-1.57;100.00;103399.63;5261453;28;20049;-71
2024/01/27 07:36:26;;;;;;;40.47;18.83;;;;;;;-1.52;100.00;103397.44;5260743;28;20025;-71
2024/01/27 07:38:57;;;;;;;40.33;16.77;;;;;;;-1.48;100.00;103402.03;5261255;28;20461;-71
2024/01/27 07:41:29;;;;;;;39.37;17.97;;;;;;;-1.48;100.00;103397.81;5260323;28;20037;-71
2024/01/27 07:44:10;;;;;;;35.63;17.33;;;;;;;-1.47;100.00;103393.56;5260931;28;20064;-71
2024/01/27 07:46:42;;;;;;;34.25;17.67;;;;;;;-1.41;100.00;103395.75;5260604;28;20033;-71
2024/01/27 07:49:14;;;;;;;36.67;18.13;;;;;;;-1.44;100.00;103410.84;5261302;28;20420;-70
2024/01/27 07:51:46;;;;;;;;;;;;;;;-1.49;100.00;103407.91;5271964;28;20047;-71
2024/01/27 07:54:17;;;;;;;27.65;16.40;;;;;;;-1.42;100.00;103410.16;5281781;28;20403;-71
2024/01/27 07:56:49;;;;;;;40.60;17.30;;;;;;;-1.37;100.00;103411.44;5276483;28;20379;-71
2024/01/27 07:59:20;;;;;;;38.83;16.43;;;;;;;-1.33;100.00;103412.56;5271530;28;20025;-71
2024/01/27 08:01:51;;;;;;;39.83;17.13;;;;;;;-1.28;100.00;103406.16;5238918;28;20033;-71
2024/01/27 08:04:23;;;;;;;37.80;17.60;;;;;;;-1.28;100.00;103406.16;5240240;28;20064;-72
2024/01/27 08:06:54;;;;;;;39.00;17.37;;;;;;;-1.22;100.00;103406.63;5241753;28;20147;-71
2024/01/27 08:09:26;;;;;;;40.83;19.50;;;;;;;-1.16;100.00;103398.50;5243183;28;20037;-71
2024/01/27 08:11:57;;;;;;;39.03;19.73;;;;;;;-1.14;100.00;103397.88;5244394;28;20484;-71
2024/01/27 08:14:32;;;;;;;34.43;17.17;;;;;;;-1.11;100.00;103394.66;5244364;28;20064;-71
2024/01/27 08:17:04;;;;;;;33.75;18.92;;;;;;;-1.04;100.00;103399.47;5244269;28;20179;-71
2024/01/27 08:19:35;;;;;;;36.10;17.90;;;;;;;-0.93;100.00;103402.88;5244340;28;20026;-71
2024/01/27 08:22:09;;;;;;;38.20;18.13;;;;;;;-0.85;100.00;103395.75;5244585;28;20029;-70
2024/01/27 08:24:40;;;;;;;41.10;17.77;;;;;;;-0.82;100.00;103391.78;5243808;28;20187;-70
2024/01/27 08:27:11;;;;;;;39.87;17.20;;;;;;;-0.71;100.00;103400.25;5243872;28;20021;-70
2024/01/27 08:29:43;;;;;;;42.90;16.80;;;;;;;-0.59;100.00;103390.94;5243733;28;20136;-71
2024/01/27 08:32:14;;;;;;;36.30;17.70;;;;;;;-0.46;100.00;103387.59;5243786;28;20104;-71
2024/01/27 08:34:47;;;;;;;35.83;16.13;;;;;;;-0.29;100.00;103381.19;5243708;28;20551;-71
2024/01/27 08:37:20;;;;;;;39.50;17.10;;;;;;;-0.21;100.00;103389.41;5243437;28;20172;-71
2024/01/27 08:39:51;;;;;;;35.47;17.20;;;;;;;-0.09;100.00;103385.19;5243871;28;20024;-70
2024/01/27 08:42:23;;;;;;;43.87;17.00;;;;;;;0.06;100.00;103389.63;5243910;28;20029;-71
2024/01/27 08:44:54;;;;;;;35.67;15.37;;;;;;;0.22;100.00;103404.47;5243950;28;20025;-70
2024/01/27 08:47:26;;;;;;;42.53;15.93;;;;;;;0.33;100.00;103403.56;5243834;28;20044;-70
2024/01/27 08:49:57;;;;;;;26.20;13.97;;;;;;;0.45;100.00;103413.78;5243974;28;20033;-70
2024/01/27 08:52:28;;;;;;;28.60;13.57;;;;;;;0.60;100.00;103401.16;5243728;28;20026;-71
2024/01/27 08:55:00;;;;;;;25.93;13.80;;;;;;;0.78;100.00;103401.56;5243857;28;20026;-71
2024/01/27 08:57:31;;;;;;;32.00;12.07;;;;;;;0.92;100.00;103411.13;5242359;28;20113;-71
2024/01/27 09:00:03;;;;;;;28.53;12.90;;;;;;;1.12;100.00;103420.16;5243622;28;20026;-71
2024/01/27 09:02:34;;;;;;;30.05;11.15;;;;;;;1.34;100.00;103425.09;5243548;28;20413;-71
2024/01/27 09:05:06;;;;;;;24.27;9.87;;;;;;;1.47;100.00;103434.53;5243462;28;20068;-71
2024/01/27 09:07:38;;;;;;;21.40;10.00;;;;;;;1.62;100.00;103430.41;5241747;28;20091;-71
2024/01/27 09:10:12;;;;;;;22.73;10.50;;;;;;;1.85;100.00;103425.88;5243356;28;20037;-71
2024/01/27 09:12:43;;;;;;;21.77;9.50;;;;;;;2.11;100.00;103421.53;5243306;28;20476;-71
2024/01/27 09:15:15;;;;;;;21.53;10.17;;;;;;;2.32;100.00;103434.91;5243583;28;20022;-71
2024/01/27 09:17:48;;;;;;;15.57;8.37;;;;;;;2.58;100.00;103433.06;5274826;28;20033;-71
2024/01/27 09:20:19;;;;;;;21.27;9.77;;;;;;;2.62;100.00;103433.34;5241550;28;20072;-71
2024/01/27 09:22:51;;;;;;;18.97;9.13;;;;;;;2.75;100.00;103440.16;5241851;28;20030;-71
2024/01/27 09:25:22;;;;;;;19.30;9.63;;;;;;;3.00;100.00;103441.69;5242566;28;20045;-71
2024/01/27 09:27:54;;;;;;;23.90;8.30;;;;;;;3.10;100.00;103444.91;5243130;28;20361;-71
2024/01/27 09:30:26;;;;;;;21.52;9.00;;;;;;;3.22;100.00;103444.78;5243147;28;20079;-71
2024/01/27 09:32:57;;;;;;;19.37;7.43;;;;;;;3.40;100.00;103450.16;5242993;28;20453;-71
2024/01/27 09:35:28;;;;;;;22.07;8.17;;;;;;;3.60;100.00;103463.31;5241472;28;20543;-71
2024/01/27 09:38:00;;;;;;;17.30;8.90;;;;;;;3.52;100.00;103464.56;5242749;28;20117;-71
2024/01/27 09:40:31;;;;;;;16.83;7.63;;;;;;;3.76;100.00;103470.28;5242908;28;20026;-71
2024/01/27 09:43:03;;;;;;;22.43;8.03;;;;;;;3.77;100.00;103472.06;5242906;28;20053;-70
2024/01/27 09:45:35;;;;;;;17.03;8.07;;;;;;;3.62;100.00;103480.69;5242689;28;20057;-70
2024/01/27 09:48:10;;;;;;;16.88;7.18;;;;;;;3.94;100.00;103481.66;5243539;28;20029;-71
2024/01/27 09:50:42;;;;;;;20.55;9.00;;;;;;;4.04;100.00;103484.78;5242557;28;20087;-71
2024/01/27 09:53:13;;;;;;;18.73;7.50;;;;;;;4.20;100.00;103474.50;5242326;28;20105;-71
2024/01/27 09:55:44;;;;;;;19.27;7.73;;;;;;;4.53;100.00;103472.94;5242415;28;20029;-71
2024/01/27 09:58:16;;;;;;;19.20;7.93;;;;;;;4.67;100.00;103478.88;5242092;28;20131;-71
2024/01/27 10:00:48;;;;;;;16.20;7.03;;;;;;;4.83;100.00;103485.78;5242248;28;20025;-71
2024/01/27 10:03:20;;;;;;;19.35;8.63;;;;;;;4.88;100.00;103488.63;5242318;28;20032;-71
2024/01/27 10:05:53;;;;;;;25.17;8.40;;;;;;;5.17;100.00;103491.84;5242403;28;20464;-70
2024/01/27 10:08:24;;;;;;;16.85;6.93;;;;;;;5.47;100.00;103492.56;5241346;28;20099;-70
2024/01/27 10:10:56;;;;;;;18.00;7.37;;;;;;;5.73;99.61;103481.00;5242079;28;20117;-71
2024/01/27 10:13:28;;;;;;;14.73;6.77;;;;;;;6.00;98.30;103480.59;5241815;28;20295;-71
2024/01/27 10:16:06;;;;;;;20.17;8.20;;;;;;;6.21;99.08;103488.53;5243999;28;20033;-71
2024/01/27 10:18:38;;;;;;;17.65;7.75;;;;;;;6.23;96.98;103486.94;5242126;28;20029;-71
2024/01/27 10:21:13;;;;;;;18.83;7.93;;;;;;;6.48;95.25;103494.16;5241960;28;20021;-71
2024/01/27 10:23:45;;;;;;;21.08;8.10;;;;;;;6.58;95.25;103490.28;5241706;28;20033;-71
2024/01/27 10:26:16;;;;;;;16.83;6.57;;;;;;;7.05;92.69;103498.50;5241892;28;20055;-71
2024/01/27 10:28:57;;;;;;;19.63;7.17;;;;;;;7.05;92.83;103482.94;5241010;28;20105;-71
2024/01/27 10:31:30;;;;;;;17.08;7.95;;;;;;;7.29;91.10;103488.34;5241335;28;20064;-71
2024/01/27 10:34:04;;;;;;;17.50;7.10;;;;;;;7.38;87.30;103488.75;5240348;28;20034;-71
2024/01/27 10:36:42;;;;;;;14.90;6.35;;;;;;;7.37;87.86;103492.16;5241797;28;20025;-71
2024/01/27 10:39:18;;;;;;;17.33;6.63;;;;;;;7.36;86.42;103502.47;5241563;28;20028;-71
2024/01/27 10:41:51;;;;;;;19.00;7.57;;;;;;;7.41;85.85;103494.06;5241491;28;20029;-71
2024/01/27 10:44:22;;;;;;;13.70;7.45;;;;;;;7.71;86.16;103500.53;5241484;28;20021;-72
2024/01/27 10:46:56;;;;;;;21.57;7.80;;;;;;;7.24;84.47;103500.22;5240205;28;20040;-71
2024/01/27 10:49:32;;;;;;;19.15;8.02;;;;;;;7.92;85.02;103493.66;5241491;28;20453;-70
2024/01/27 10:52:10;;;;;;;17.92;7.47;;;;;;;8.32;82.26;103483.97;5241212;28;20056;-71
2024/01/27 10:54:43;;;;;;;17.00;7.57;;;;;;;8.33;80.21;103486.66;5241758;28;20021;-71
2024/01/27 10:57:16;;;;;;;17.38;7.28;;;;;;;8.51;80.35;103476.13;5239957;28;20026;-70
2024/01/27 10:59:48;;;;;;;12.57;6.15;;;;;;;8.65;77.14;103487.06;5241564;28;20032;-71
2024/01/27 11:02:21;;;;;;;17.85;7.57;;;;;;;8.48;77.44;103473.38;5241016;28;20037;-71
2024/01/27 11:04:54;;;;;;;16.15;7.32;;;;;;;8.50;77.06;103465.66;5239893;28;20055;-71
2024/01/27 11:07:27;;;;;;;21.85;8.43;;;;;;;8.95;76.64;103468.22;5240867;28;20483;-71
2024/01/27 11:09:58;;;;;;;;;;;;;;;9.19;77.84;103469.97;5241649;28;20152;-72
2024/01/27 11:12:30;;;;;;;17.67;6.93;;;;;;;9.76;73.80;103464.13;5241220;28;19920;-72
2024/01/27 11:15:02;;;;;;;13.57;6.40;;;;;;;10.01;73.00;103458.91;5240778;28;20058;-70
2024/01/27 11:17:41;;;;;;;21.60;7.20;;;;;;;10.56;70.41;103464.09;5241173;28;20056;-71
2024/01/27 11:20:14;;;;;;;18.25;7.05;;;;;;;10.96;68.41;103462.66;5241001;28;20037;-71
2024/01/27 11:22:46;;;;;;;17.55;6.03;;;;;;;11.29;68.09;103462.72;5241315;28;20064;-71
2024/01/27 11:25:18;;;;;;;17.73;6.83;;;;;;;11.74;63.95;103463.88;5240598;28;20151;-71
2024/01/27 11:27:51;;;;;;;14.98;6.25;;;;;;;12.23;62.51;103464.22;5239489;28;20026;-71
2024/01/27 11:30:33;;;;;;;17.65;7.30;;;;;;;11.59;59.41;103466.09;5240687;28;20059;-71